Zakirovskiy Airport

Jump to: basic info | weather | comments

Related pages: nearby airports | nearby navaids

Basic information (top)

Location: lon 43.448002, lat 77.049599, elev 2,038 ft / 621 m msl
Status: small_airport

Weather (top)

Current conditions for Almaty Airport 6nm (11km) S (rec'd 2014/11/01 12:00Z):

UAAA 011200Z VRB01MPS 0900 R23R/1300 R23L/0900VP2000D FU FEW200 08/M00 Q1018 R88/65D TEMPO 0400 BR FU

Airport forecast for Almaty Airport 6nm (11km) S (rec'd 2014/11/01 12:18Z):

TAF UAAA 011100Z 0112/0212 14005MPS 1500 BR FU BKN100 TX14/0208Z TNM01/0201Z 
      TEMPO 0112/0118 0400 
      TEMPO 0118/0203 0300 FZFG 
      BECMG 0203/0204 02005MPS 9999 NSW

Latest comments (top)

No comments yet for Zakirovskiy Airport

More... (top)

See also NOTAMs and nearby airports and navaids, or visit the Zakirovskiy Airport page at the main OurAirports website..